Time;durP1;ratioP1;P1;durP2;ratioP2;P2;SDS_P1;SDS_P2;PMS_P1;PMS_P2;Temp;Humidity;BMP_temperature;BMP_pressure;BME280_temperature;BME280_humidity;BME280_pressure;Samples;Min_cycle;Max_cycle;Signal;HPM_P1;HPM_P2
2022/09/07 00:00:01;;;;;;;;;;;21.30;99.90;21.30;99514.00;;;;343359;28;83457;-94
2022/09/07 00:00:14;;;;;;;;;;;21.30;99.90;21.20;99510.00;;;;341755;28;90170;-95
2022/09/07 00:00:25;;;;;;;;;;;21.30;99.90;21.20;99509.00;;;;344809;28;82513;-95
2022/09/07 00:00:37;;;;;;;;;;;21.30;99.90;21.30;99511.00;;;;341476;28;91489;-94
2022/09/07 00:00:50;;;;;;;;;;;21.30;99.90;21.20;99515.00;;;;341806;28;83400;-95
2022/09/07 00:01:01;;;;;;;;;;;21.30;99.90;21.20;99509.00;;;;343108;28;88000;-94
2022/09/07 00:01:13;;;;;;;;;;;21.30;99.90;21.30;99513.00;;;;343506;28;83260;-95
2022/09/07 00:01:25;;;;;;;;;;;21.20;99.90;21.30;99518.00;;;;341603;28;90740;-95
2022/09/07 00:01:38;;;;;;;;;;;21.30;99.90;21.30;99505.00;;;;344831;28;83330;-95
2022/09/07 00:01:49;;;;;;;;;;;21.20;99.90;21.30;99517.00;;;;343076;28;91924;-95
2022/09/07 00:02:01;;;;;;;;;;;21.30;99.90;21.30;99513.00;;;;340692;28;83446;-95
2022/09/07 00:02:13;;;;;;;;;;;21.20;99.90;21.30;99513.00;;;;341707;28;90855;-95
2022/09/07 00:02:25;;;;;;;;;;;21.30;99.90;21.30;99513.00;;;;343569;28;83393;-94
2022/09/07 00:02:36;;;;;;;;;;;21.20;99.90;21.30;99518.00;;;;342785;28;92718;-94
2022/09/07 00:02:48;;;;;;;;;;;21.20;99.90;21.30;99522.00;;;;343482;28;82543;-95
2022/09/07 00:03:00;;;;;;;;;;;21.30;99.90;21.30;99523.00;;;;344416;28;90392;-94
2022/09/07 00:03:12;;;;;;;;;;;21.20;99.90;21.30;99520.00;;;;343522;28;83390;-95
2022/09/07 00:03:24;;;;;;;;;;;21.20;99.90;21.30;99520.00;;;;345697;28;90385;-94
2022/09/07 00:03:36;;;;;;;;;;;21.20;99.90;21.20;99518.00;;;;343483;28;83417;-94
2022/09/07 00:03:48;;;;;;;;;;;21.20;99.90;21.20;99519.00;;;;341508;28;91456;-94
2022/09/07 00:04:00;;;;;;;;;;;21.20;99.90;21.20;99520.00;;;;342072;28;83443;-95
2022/09/07 00:04:12;;;;;;;;;;;21.20;99.90;21.20;99525.00;;;;342897;28;91514;-96
2022/09/07 00:04:24;;;;;;;;;;;21.20;99.90;21.20;99521.00;;;;343422;28;82453;-95
2022/09/07 00:04:36;;;;;;;;;;;21.20;99.90;21.20;99519.00;;;;344231;28;92222;-95
2022/09/07 00:04:47;;;;;;;;;;;21.20;99.90;21.20;99525.00;;;;344762;28;83449;-95
2022/09/07 00:04:59;;;;;;;;;;;21.20;99.90;21.20;99515.00;;;;343022;28;91757;-94
2022/09/07 00:05:11;;;;;;;;;;;21.20;99.90;21.20;99523.00;;;;342219;28;82399;-94
2022/09/07 00:05:23;;;;;;;;;;;21.20;99.90;21.20;99527.00;;;;342996;28;91198;-95
2022/09/07 00:05:42;;;;;;;;;;;21.20;99.90;21.20;99527.00;;;;343439;28;83398;-95
2022/09/07 00:05:54;;;;;;;;;;;21.20;99.90;21.20;99519.00;;;;341641;28;91487;-95
2022/09/07 00:06:07;;;;;;;;;;;21.20;99.90;21.20;99520.00;;;;343374;28;83496;-95
2022/09/07 00:06:18;;;;;;;;;;;21.20;99.90;21.20;99517.00;;;;341719;28;91357;-95
2022/09/07 00:06:33;;;;;;;;;;;21.20;99.90;21.20;99515.00;;;;342053;28;83229;-95
2022/09/07 00:06:45;;;;;;;;;;;21.10;99.90;21.20;99519.00;;;;341642;28;88977;-94
2022/09/07 00:06:56;;;;;;;;;;;21.20;99.90;21.20;99517.00;;;;342106;28;83234;-95
2022/09/07 00:07:08;;;;;;;;;;;21.20;99.90;21.30;99519.00;;;;343053;28;91497;-94
2022/09/07 00:07:20;;;;;;;;;;;21.20;99.90;21.30;99516.00;;;;341954;28;83434;-95
2022/09/07 00:07:32;;;;;;;;;;;21.20;99.90;21.30;99514.00;;;;342735;28;91967;-95
2022/09/07 00:07:44;;;;;;;;;;;21.20;99.90;21.30;99512.00;;;;342104;28;83353;-95
2022/09/07 00:07:56;;;;;;;;;;;21.20;99.90;21.30;99513.00;;;;343152;28;87605;-94
2022/09/07 00:08:08;;;;;;;;;;;21.20;99.90;21.30;99515.00;;;;343391;28;82497;-95
2022/09/07 00:08:21;;;;;;;;;;;21.20;99.90;21.20;99514.00;;;;343046;28;91930;-95
2022/09/07 00:08:33;;;;;;;;;;;21.20;99.90;21.20;99515.00;;;;343435;28;82435;-95
2022/09/07 00:08:45;;;;;;;;;;;21.20;99.90;21.20;99508.00;;;;341577;28;91388;-95
2022/09/07 00:08:57;;;;;;;;;;;21.20;99.90;21.10;99512.00;;;;343462;28;83320;-95
2022/09/07 00:09:09;;;;;;;;;;;21.20;99.90;21.10;99517.00;;;;342913;28;89552;-95
2022/09/07 00:09:20;;;;;;;;;;;21.20;99.90;21.10;99508.00;;;;344730;28;83275;-94
2022/09/07 00:09:32;;;;;;;;;;;21.10;99.90;21.10;99512.00;;;;341705;28;90935;-95
2022/09/07 00:09:44;;;;;;;;;;;21.20;99.90;21.20;99513.00;;;;343285;28;83434;-95
2022/09/07 00:09:56;;;;;;;;;;;21.20;99.90;21.30;99506.00;;;;342808;28;90823;-95
2022/09/07 00:10:08;;;;;;;;;;;21.20;99.90;21.30;99505.00;;;;342018;28;82495;-95
2022/09/07 00:10:20;;;;;;;;;;;21.20;99.90;21.30;99508.00;;;;340418;28;91571;-95
2022/09/07 00:10:32;;;;;;;;;;;21.20;99.90;21.40;99511.00;;;;342078;28;83183;-95
2022/09/07 00:10:58;;;;;;;;;;;21.20;99.90;21.30;99503.00;;;;341582;28;90907;-95
2022/09/07 00:11:12;;;;;;;;;;;21.20;99.90;21.30;99503.00;;;;340846;28;83457;-95
2022/09/07 00:11:24;;;;;;;;;;;21.20;99.90;21.30;99508.00;;;;341541;28;91297;-95
2022/09/07 00:11:35;;;;;;;;;;;21.20;99.90;21.30;99501.00;;;;342094;28;83477;-95
2022/09/07 00:11:47;;;;;;;;;;;21.20;99.90;21.30;99508.00;;;;340365;28;90826;-95
2022/09/07 00:11:59;;;;;;;;;;;21.20;99.90;21.30;99502.00;;;;343422;28;83341;-94
2022/09/07 00:12:11;;;;;;;;;;;21.20;99.90;21.30;99506.00;;;;341588;28;90483;-95
2022/09/07 00:12:23;;;;;;;;;;;21.10;99.90;21.30;99505.00;;;;344843;28;83375;-95
2022/09/07 00:12:34;;;;;;;;;;;21.20;99.90;21.30;99504.00;;;;344324;28;91392;-95
2022/09/07 00:12:46;;;;;;;;;;;21.20;99.90;21.30;99500.00;;;;341821;28;82496;-95
2022/09/07 00:12:58;;;;;;;;;;;21.20;99.90;21.30;99501.00;;;;344323;28;91730;-95
2022/09/07 00:13:10;;;;;;;;;;;21.20;99.90;21.40;99504.00;;;;344841;28;83750;-95
2022/09/07 00:13:23;;;;;;;;;;;21.20;99.90;21.30;99495.00;;;;342976;28;91981;-95
2022/09/07 00:13:36;;;;;;;;;;;21.20;99.90;21.20;99505.00;;;;342079;28;82446;-95
2022/09/07 00:13:48;;;;;;;;;;;21.20;99.90;21.30;99499.00;;;;343037;28;90468;-96
2022/09/07 00:14:00;;;;;;;;;;;21.20;99.90;21.40;99499.00;;;;343467;28;83444;-95
2022/09/07 00:14:12;;;;;;;;;;;21.20;99.90;21.50;99496.00;;;;341586;28;91878;-95
2022/09/07 00:14:24;;;;;;;;;;;21.20;99.90;21.50;99493.00;;;;343659;28;83323;-95
2022/09/07 00:14:35;;;;;;;;;;;21.20;99.90;21.40;99494.00;;;;341593;28;90485;-95
2022/09/07 00:14:47;;;;;;;;;;;21.20;99.90;21.30;99499.00;;;;343440;28;83456;-95
2022/09/07 00:15:00;;;;;;;;;;;21.20;99.90;21.30;99496.00;;;;342608;28;91417;-95
2022/09/07 00:15:12;;;;;;;;;;;21.20;99.90;21.30;99503.00;;;;344783;28;83197;-95
2022/09/07 00:15:24;;;;;;;;;;;21.20;99.90;21.30;99493.00;;;;341651;28;90593;-95
2022/09/07 00:15:39;;;;;;;;;;;21.20;99.90;21.40;99494.00;;;;343344;28;83253;-95
2022/09/07 00:15:51;;;;;;;;;;;21.20;99.90;21.30;99499.00;;;;343054;28;91338;-95
2022/09/07 00:16:07;;;;;;;;;;;21.20;99.90;21.30;99495.00;;;;343380;28;82508;-95
2022/09/07 00:16:26;;;;;;;;;;;21.20;99.90;21.30;99499.00;;;;342903;28;90007;-95
2022/09/07 00:16:38;;;;;;;;;;;21.20;99.90;21.30;99497.00;;;;343370;28;83391;-95
2022/09/07 00:16:50;;;;;;;;;;;21.20;99.90;21.30;99500.00;;;;344338;28;91468;-95
2022/09/07 00:17:02;;;;;;;;;;;21.30;99.90;21.30;99499.00;;;;342091;28;83278;-95
2022/09/07 00:17:14;;;;;;;;;;;21.20;99.90;21.30;99495.00;;;;342902;28;90280;-95
2022/09/07 00:17:26;;;;;;;;;;;21.20;99.90;21.30;99499.00;;;;343487;28;82562;-95
2022/09/07 00:17:38;;;;;;;;;;;21.20;99.90;21.30;99499.00;;;;341652;28;91177;-94
2022/09/07 00:17:49;;;;;;;;;;;21.20;99.90;21.30;99491.00;;;;343448;28;83251;-95
2022/09/07 00:18:01;;;;;;;;;;;21.20;99.90;21.30;99496.00;;;;344195;28;91360;-95
2022/09/07 00:18:13;;;;;;;;;;;21.20;99.90;21.30;99497.00;;;;340771;28;82413;-95
2022/09/07 00:18:25;;;;;;;;;;;21.20;99.90;21.30;99497.00;;;;341808;28;89747;-95
2022/09/07 00:18:37;;;;;;;;;;;21.20;99.90;21.20;99502.00;;;;343245;28;83281;-95
2022/09/07 00:18:56;;;;;;;;;;;21.20;99.90;21.20;99498.00;;;;341709;28;90931;-95
2022/09/07 00:19:07;;;;;;;;;;;21.20;99.90;21.20;99501.00;;;;342071;28;82492;-95
2022/09/07 00:19:20;;;;;;;;;;;21.20;99.90;21.10;99494.00;;;;341520;28;92142;-95
2022/09/07 00:19:31;;;;;;;;;;;21.20;99.90;21.10;99508.00;;;;343486;28;82317;-94
2022/09/07 00:19:43;;;;;;;;;;;21.20;99.90;21.10;99493.00;;;;343104;28;90396;-95
2022/09/07 00:19:55;;;;;;;;;;;21.20;99.90;21.10;99493.00;;;;344822;28;83293;-95
2022/09/07 00:20:08;;;;;;;;;;;21.20;99.90;21.10;99496.00;;;;342976;28;91167;-95
2022/09/07 00:20:19;;;;;;;;;;;21.20;99.90;21.10;99499.00;;;;342070;28;83338;-94
2022/09/07 00:20:31;;;;;;;;;;;21.20;99.90;21.10;99489.00;;;;340258;28;91608;-95
2022/09/07 00:20:43;;;;;;;;;;;21.20;99.90;21.10;99496.00;;;;341967;28;83296;-95
2022/09/07 00:20:59;;;;;;;;;;;21.20;99.90;21.20;99494.00;;;;344386;28;90111;-95
2022/09/07 00:21:11;;;;;;;;;;;21.20;99.90;21.20;99501.00;;;;340787;28;82443;-95
2022/09/07 00:21:26;;;;;;;;;;;21.20;99.90;21.20;99502.00;;;;340200;28;91661;-95
2022/09/07 00:21:37;;;;;;;;;;;21.20;99.90;21.20;99493.00;;;;342039;28;83474;-95
2022/09/07 00:21:49;;;;;;;;;;;21.20;99.90;21.20;99494.00;;;;342992;28;89169;-94
2022/09/07 00:22:01;;;;;;;;;;;21.20;99.90;21.30;99499.00;;;;343435;28;83299;-95
2022/09/07 00:22:13;;;;;;;;;;;21.20;99.90;21.20;99499.00;;;;343119;28;91896;-94
2022/09/07 00:22:25;;;;;;;;;;;21.20;99.90;21.30;99497.00;;;;343445;28;82523;-95
2022/09/07 00:22:37;;;;;;;;;;;21.20;99.90;21.40;99493.00;;;;341536;28;89068;-95
2022/09/07 00:22:48;;;;;;;;;;;21.20;99.90;21.50;99492.00;;;;340700;28;83232;-95
2022/09/07 00:23:00;;;;;;;;;;;21.20;99.90;21.40;99493.00;;;;340265;28;91399;-95
2022/09/07 00:23:12;;;;;;;;;;;21.20;99.90;21.40;99494.00;;;;344906;28;82478;-95
2022/09/07 00:23:24;;;;;;;;;;;21.20;99.90;21.50;99491.00;;;;341595;28;91510;-95
2022/09/07 00:23:36;;;;;;;;;;;21.20;99.90;21.50;99491.00;;;;343465;28;83402;-95
2022/09/07 00:23:49;;;;;;;;;;;21.20;99.90;21.60;99498.00;;;;341664;28;91644;-94
2022/09/07 00:24:00;;;;;;;;;;;21.30;99.90;21.60;99493.00;;;;343553;28;83927;-95
2022/09/07 00:24:13;;;;;;;;;;;21.30;99.90;21.60;99492.00;;;;342165;28;90374;-95
2022/09/07 00:24:25;;;;;;;;;;;21.30;99.90;21.50;99489.00;;;;346819;28;83329;-95
2022/09/07 00:24:36;;;;;;;;;;;21.30;99.90;21.40;99488.00;;;;344871;28;91369;-95
2022/09/07 00:24:48;;;;;;;;;;;21.20;99.90;21.50;99488.00;;;;342327;28;82519;-92
2022/09/07 00:25:00;;;;;;;;;;;21.20;99.90;21.40;99487.00;;;;345016;28;90432;-95
2022/09/07 00:25:12;;;;;;;;;;;21.20;99.90;21.30;99492.00;;;;345626;28;82383;-95
2022/09/07 00:25:24;;;;;;;;;;;21.20;99.90;21.30;99495.00;;;;344461;28;90598;-94
2022/09/07 00:25:37;;;;;;;;;;;21.20;99.90;21.20;99492.00;;;;342710;28;83314;-94
2022/09/07 00:25:49;;;;;;;;;;;21.30;99.90;21.20;99498.00;;;;345101;28;90418;-95
2022/09/07 00:26:09;;;;;;;;;;;21.20;99.90;21.10;99494.00;;;;342708;28;82572;-94
2022/09/07 00:26:26;;;;;;;;;;;21.20;99.90;21.10;99483.00;;;;345107;28;89094;-95
2022/09/07 00:26:38;;;;;;;;;;;21.20;99.90;21.10;99495.00;;;;344096;28;82540;-94
2022/09/07 00:29:06;;;;;;;;;;;21.10;99.90;21.00;99490.00;;;;308015;23;90203;-84
2022/09/07 00:29:18;;;;;;;;;;;21.10;99.90;21.00;99492.00;;;;345067;28;83621;-93
2022/09/07 00:29:30;;;;;;;;;;;21.10;99.90;21.00;99492.00;;;;341461;28;91329;-93
2022/09/07 00:29:41;;;;;;;;;;;21.10;99.90;21.00;99483.00;;;;343091;28;83483;-92
2022/09/07 00:29:53;;;;;;;;;;;21.10;99.90;20.90;99492.00;;;;344302;28;87673;-93
2022/09/07 00:30:05;;;;;;;;;;;21.00;99.90;20.90;99490.00;;;;339413;28;83357;-92
2022/09/07 00:30:17;;;;;;;;;;;21.00;99.90;20.90;99480.00;;;;341742;28;91716;-92
2022/09/07 00:30:29;;;;;;;;;;;21.00;99.90;20.90;99492.00;;;;344589;28;83342;-93
2022/09/07 00:30:41;;;;;;;;;;;21.00;99.90;20.90;99491.00;;;;340946;28;90826;-93
2022/09/07 00:30:53;;;;;;;;;;;21.00;99.90;20.90;99481.00;;;;340328;28;83489;-93
2022/09/07 00:31:21;;;;;;;;;;;21.00;99.90;20.90;99485.00;;;;340302;28;92761;-92
2022/09/07 00:31:33;;;;;;;;;;;21.00;99.90;20.90;99488.00;;;;343208;28;83540;-92
2022/09/07 00:31:45;;;;;;;;;;;21.00;99.90;21.00;99489.00;;;;341685;28;91476;-92
2022/09/07 00:31:57;;;;;;;;;;;20.90;99.90;21.00;99489.00;;;;340570;28;82580;-92
2022/09/07 00:32:09;;;;;;;;;;;21.00;99.90;21.00;99486.00;;;;340294;28;91514;-92
2022/09/07 00:32:20;;;;;;;;;;;21.00;99.90;21.00;99486.00;;;;343557;28;83606;-92
2022/09/07 00:32:32;;;;;;;;;;;21.00;99.90;21.00;99482.00;;;;341625;28;91244;-93
2022/09/07 00:32:44;;;;;;;;;;;20.90;99.90;21.00;99484.00;;;;343389;28;83509;-92
2022/09/07 00:32:56;;;;;;;;;;;20.90;99.90;21.00;99486.00;;;;344906;28;90394;-93
2022/09/07 00:33:08;;;;;;;;;;;20.90;99.90;21.00;99483.00;;;;341836;28;83525;-92
2022/09/07 00:33:20;;;;;;;;;;;21.00;99.90;20.90;99487.00;;;;342750;28;91247;-92
2022/09/07 00:33:31;;;;;;;;;;;21.00;99.90;20.90;99483.00;;;;344731;28;82571;-92
2022/09/07 00:33:43;;;;;;;;;;;20.90;99.90;20.90;99478.00;;;;341536;28;91305;-92
2022/09/07 00:33:57;;;;;;;;;;;20.90;99.90;20.90;99477.00;;;;343359;28;83482;-92
2022/09/07 00:34:09;;;;;;;;;;;20.90;99.90;20.90;99482.00;;;;343113;28;91437;-92
2022/09/07 00:34:20;;;;;;;;;;;20.90;99.90;20.90;99482.00;;;;340815;28;83494;-92
2022/09/07 00:34:32;;;;;;;;;;;20.90;99.90;20.90;99484.00;;;;341337;28;91322;-92
2022/09/07 00:34:44;;;;;;;;;;;20.90;99.90;20.90;99477.00;;;;340679;28;83428;-92
2022/09/07 00:34:56;;;;;;;;;;;20.90;99.90;20.90;99479.00;;;;343007;28;91132;-93
2022/09/07 00:35:08;;;;;;;;;;;20.90;99.90;20.90;99476.00;;;;343510;28;83395;-92
2022/09/07 00:35:20;;;;;;;;;;;20.90;99.90;20.90;99480.00;;;;340002;28;92013;-92
2022/09/07 00:35:31;;;;;;;;;;;20.90;99.90;20.90;99481.00;;;;344780;28;83443;-93
2022/09/07 00:35:43;;;;;;;;;;;20.90;99.90;20.90;99478.00;;;;344173;28;90496;-92
2022/09/07 00:35:56;;;;;;;;;;;20.90;99.90;20.90;99475.00;;;;343354;28;83185;-92
2022/09/07 00:36:08;;;;;;;;;;;20.90;99.90;20.90;99489.00;;;;343045;28;90624;-92
2022/09/07 00:36:20;;;;;;;;;;;20.90;99.90;20.90;99480.00;;;;344782;28;83362;-92
2022/09/07 00:36:32;;;;;;;;;;;20.90;99.90;20.90;99482.00;;;;344339;28;91080;-92
2022/09/07 00:36:44;;;;;;;;;;;20.90;99.90;20.90;99482.00;;;;342065;28;82521;-93
2022/09/07 00:36:56;;;;;;;;;;;20.90;99.90;20.90;99479.00;;;;343157;28;91815;-92
2022/09/07 00:37:08;;;;;;;;;;;20.90;99.90;20.90;99482.00;;;;343429;28;83353;-93
2022/09/07 00:37:19;;;;;;;;;;;20.90;99.90;21.00;99478.00;;;;344234;28;91213;-92
2022/09/07 00:37:31;;;;;;;;;;;20.90;99.90;21.00;99485.00;;;;344695;28;83462;-93
2022/09/07 00:37:43;;;;;;;;;;;20.90;99.90;21.00;99481.00;;;;344377;28;91876;-92
2022/09/07 00:37:55;;;;;;;;;;;20.90;99.90;21.00;99478.00;;;;341997;28;83239;-92
2022/09/07 00:38:07;;;;;;;;;;;20.90;99.90;21.00;99487.00;;;;341559;28;91093;-92
2022/09/07 00:38:18;;;;;;;;;;;20.90;99.90;21.00;99478.00;;;;344833;28;82575;-93
2022/09/07 00:38:30;;;;;;;;;;;20.90;99.90;21.00;99479.00;;;;341627;28;91771;-93
2022/09/07 00:38:42;;;;;;;;;;;20.90;99.90;21.00;99482.00;;;;343475;28;83454;-93
2022/09/07 00:38:54;;;;;;;;;;;20.90;99.90;21.00;99478.00;;;;343081;28;91812;-93
2022/09/07 00:39:06;;;;;;;;;;;20.90;99.90;21.00;99478.00;;;;342315;28;82372;-93
2022/09/07 00:39:18;;;;;;;;;;;20.90;99.90;21.00;99478.00;;;;344167;28;91436;-93
2022/09/07 00:39:30;;;;;;;;;;;20.90;99.90;21.00;99473.00;;;;344833;28;82544;-93
2022/09/07 00:39:41;;;;;;;;;;;20.90;99.90;21.00;99478.00;;;;341715;28;91789;-92
2022/09/07 00:39:53;;;;;;;;;;;20.90;99.90;21.00;99480.00;;;;342001;28;82588;-93
2022/09/07 00:40:06;;;;;;;;;;;20.90;99.90;21.00;99484.00;;;;344160;28;90624;-93
2022/09/07 00:40:18;;;;;;;;;;;20.90;99.90;21.00;99485.00;;;;342090;28;82521;-93
2022/09/07 00:40:29;;;;;;;;;;;20.90;99.90;21.00;99485.00;;;;342881;28;91564;-93
2022/09/07 00:40:41;;;;;;;;;;;20.90;99.90;21.00;99484.00;;;;343153;28;83421;-93
2022/09/07 00:40:53;;;;;;;;;;;20.90;99.90;21.00;99485.00;;;;344487;28;88854;-93
2022/09/07 00:41:05;;;;;;;;;;;20.90;99.90;21.00;99486.00;;;;342192;28;83355;-93
2022/09/07 00:41:17;;;;;;;;;;;20.90;99.90;21.00;99488.00;;;;342840;28;91611;-93
2022/09/07 00:41:29;;;;;;;;;;;20.90;99.90;21.00;99487.00;;;;343317;28;83417;-93
2022/09/07 00:41:41;;;;;;;;;;;20.90;99.90;21.00;99486.00;;;;341489;28;90920;-93
2022/09/07 00:41:53;;;;;;;;;;;20.90;99.90;21.00;99481.00;;;;342080;28;83390;-91
2022/09/07 00:42:04;;;;;;;;;;;20.90;99.90;21.00;99485.00;;;;343031;28;90263;-94
2022/09/07 00:42:20;;;;;;;;;;;20.90;99.90;21.00;99490.00;;;;344847;28;83454;-93
2022/09/07 00:42:31;;;;;;;;;;;20.90;99.90;21.00;99493.00;;;;340256;28;90796;-92
2022/09/07 00:42:43;;;;;;;;;;;20.90;99.90;21.00;99485.00;;;;341972;28;83458;-93
2022/09/07 00:42:55;;;;;;;;;;;20.90;99.90;21.10;99483.00;;;;342948;28;91097;-93
2022/09/07 00:43:07;;;;;;;;;;;20.90;99.90;21.10;99487.00;;;;342068;28;83544;-93
2022/09/07 00:43:31;;;;;;;;;;;20.90;99.90;21.10;99493.00;;;;342811;28;92542;-93
2022/09/07 00:43:48;;;;;;;;;;;20.90;99.90;21.00;99487.00;;;;344699;28;82658;-93
2022/09/07 00:44:37;;;;;;;;;;;20.90;99.90;21.20;99494.00;;;;345699;28;91541;-93
2022/09/07 00:45:08;;;;;;;;;;;20.90;99.90;21.10;99489.00;;;;343336;28;83434;-93
2022/09/07 00:45:20;;;;;;;;;;;20.90;99.90;21.20;99488.00;;;;342899;28;90297;-93
2022/09/07 00:45:32;;;;;;;;;;;21.00;99.90;21.20;99492.00;;;;342080;28;82412;-93
2022/09/07 00:45:44;;;;;;;;;;;20.90;99.90;21.30;99487.00;;;;341440;28;90486;-93
2022/09/07 00:45:56;;;;;;;;;;;21.00;99.90;21.30;99484.00;;;;341791;28;83446;-93
2022/09/07 00:46:24;;;;;;;;;;;21.00;99.90;21.20;99482.00;;;;342972;28;90034;-93
2022/09/07 00:46:36;;;;;;;;;;;21.00;99.90;21.30;99485.00;;;;341872;28;83679;-93
2022/09/07 00:46:48;;;;;;;;;;;21.00;99.90;21.30;99481.00;;;;342887;28;92096;-93
2022/09/07 00:47:00;;;;;;;;;;;21.00;99.90;21.20;99474.00;;;;342111;28;84063;-93
2022/09/07 00:47:20;;;;;;;;;;;21.00;99.90;21.20;99491.00;;;;340263;28;90149;-93
2022/09/07 00:48:18;;;;;;;;;;;21.00;99.90;21.10;99483.00;;;;342038;28;83410;-92
2022/09/07 00:48:56;;;;;;;;;;;21.00;99.90;21.10;99500.00;;;;340277;28;90097;-93
2022/09/07 00:49:10;;;;;;;;;;;21.00;99.90;21.10;99483.00;;;;340567;28;83365;-92
2022/09/07 00:49:21;;;;;;;;;;;21.00;99.90;21.00;99482.00;;;;338873;28;91760;-93
2022/09/07 00:49:34;;;;;;;;;;;21.00;99.90;21.10;99489.00;;;;339371;28;83531;-93
2022/09/07 00:49:56;;;;;;;;;;;21.00;99.90;21.20;99486.00;;;;337621;28;91513;-93
2022/09/07 00:50:36;;;;;;;;;;;21.00;99.90;21.10;99482.00;;;;338007;28;83321;-92
2022/09/07 00:50:51;;;;;;;;;;;21.00;99.90;21.00;99478.00;;;;338842;28;92321;-93
2022/09/07 00:51:07;;;;;;;;;;;21.00;99.90;21.00;99477.00;;;;337753;28;83538;-92
2022/09/07 00:51:41;;;;;;;;;;;21.00;99.90;21.00;99483.00;;;;338714;28;91249;-93
2022/09/07 00:51:56;;;;;;;;;;;21.00;99.90;20.90;99485.00;;;;337971;28;82356;-93
2022/09/07 00:52:08;;;;;;;;;;;21.00;99.90;20.90;99483.00;;;;336194;28;90329;-93
2022/09/07 00:52:20;;;;;;;;;;;21.00;99.90;21.00;99482.00;;;;339237;28;83450;-93
2022/09/07 00:52:32;;;;;;;;;;;21.00;99.90;20.90;99479.00;;;;338922;28;91463;-93
2022/09/07 00:52:45;;;;;;;;;;;21.00;99.90;20.90;99485.00;;;;338053;28;83325;-93
2022/09/07 00:53:04;;;;;;;;;;;21.00;99.90;20.90;99490.00;;;;336184;28;89777;-93
2022/09/07 00:53:24;;;;;;;;;;;21.00;99.90;21.00;99485.00;;;;336504;28;83741;-93
2022/09/07 00:53:43;;;;;;;;;;;21.00;99.90;21.10;99484.00;;;;338622;28;91613;-93
2022/09/07 00:54:05;;;;;;;;;;;21.00;99.90;21.10;99489.00;;;;339235;28;82304;-93
2022/09/07 00:54:19;;;;;;;;;;;21.00;99.90;21.00;99484.00;;;;340303;28;90366;-93
2022/09/07 00:54:42;;;;;;;;;;;21.00;99.90;21.00;99484.00;;;;337619;28;82410;-93
2022/09/07 00:54:57;;;;;;;;;;;21.00;99.90;21.00;99482.00;;;;336311;28;90447;-93
2022/09/07 00:55:10;;;;;;;;;;;21.00;99.90;21.00;99479.00;;;;338447;28;83490;-93
2022/09/07 00:55:22;;;;;;;;;;;21.00;99.90;21.00;99483.00;;;;338031;28;90318;-94
2022/09/07 00:55:34;;;;;;;;;;;21.00;99.90;21.00;99483.00;;;;338499;28;82468;-93
2022/09/07 00:55:46;;;;;;;;;;;21.00;99.90;21.00;99482.00;;;;340711;28;90949;-93
2022/09/07 00:55:58;;;;;;;;;;;21.00;99.90;21.00;99485.00;;;;337123;28;82366;-93
2022/09/07 00:56:10;;;;;;;;;;;21.00;99.90;21.10;99484.00;;;;338091;28;92780;-92
2022/09/07 00:56:23;;;;;;;;;;;21.00;99.90;21.00;99483.00;;;;342486;28;82493;-94
2022/09/07 00:56:36;;;;;;;;;;;21.00;99.90;21.00;99481.00;;;;338241;28;90361;-93
2022/09/07 00:56:49;;;;;;;;;;;21.00;99.90;21.00;99484.00;;;;339792;28;82597;-93
2022/09/07 00:57:00;;;;;;;;;;;21.00;99.90;21.00;99482.00;;;;339230;28;90791;-93
2022/09/07 00:57:13;;;;;;;;;;;21.00;99.90;21.00;99483.00;;;;338340;28;83439;-93
2022/09/07 00:57:26;;;;;;;;;;;21.00;99.90;21.00;99486.00;;;;339467;28;91574;-93
2022/09/07 00:57:40;;;;;;;;;;;21.00;99.90;21.00;99483.00;;;;341234;28;83474;-93
2022/09/07 00:57:53;;;;;;;;;;;21.00;99.90;21.00;99487.00;;;;339324;28;90006;-93
2022/09/07 00:58:05;;;;;;;;;;;21.00;99.90;21.10;99485.00;;;;338394;28;82357;-93
2022/09/07 00:58:18;;;;;;;;;;;21.00;99.90;21.00;99486.00;;;;340715;28;91979;-93
2022/09/07 00:58:29;;;;;;;;;;;21.00;99.90;21.00;99482.00;;;;338558;28;82544;-93
2022/09/07 00:58:41;;;;;;;;;;;21.00;99.90;21.00;99482.00;;;;336741;28;91052;-93
2022/09/07 00:58:53;;;;;;;;;;;21.00;99.90;21.00;99486.00;;;;338421;28;82663;-93
2022/09/07 00:59:05;;;;;;;;;;;21.00;99.90;21.10;99481.00;;;;338150;28;89993;-93
2022/09/07 00:59:20;;;;;;;;;;;21.00;99.90;21.10;99477.00;;;;337103;28;82468;-93
2022/09/07 00:59:35;;;;;;;;;;;21.00;99.90;21.20;99487.00;;;;339488;28;90936;-93
2022/09/07 00:59:48;;;;;;;;;;;21.00;99.90;21.20;99485.00;;;;339804;28;83266;-93
2022/09/07 01:00:01;;;;;;;;;;;21.00;99.90;21.10;99484.00;;;;340522;28;89008;-93
2022/09/07 01:00:13;;;;;;;;;;;21.00;99.90;21.10;99472.00;;;;338210;28;83302;-93
2022/09/07 01:00:26;;;;;;;;;;;21.00;99.90;21.10;99484.00;;;;337560;28;92249;-93
2022/09/07 01:00:38;;;;;;;;;;;21.00;99.90;21.00;99476.00;;;;339165;28;83458;-93
2022/09/07 01:00:50;;;;;;;;;;;21.00;99.90;21.00;99476.00;;;;337584;28;91695;-93
2022/09/07 01:01:02;;;;;;;;;;;21.00;99.90;21.00;99486.00;;;;336580;28;82521;-93
2022/09/07 01:01:15;;;;;;;;;;;21.00;99.90;21.10;99484.00;;;;336167;28;91837;-93
2022/09/07 01:01:27;;;;;;;;;;;21.00;99.90;21.10;99481.00;;;;336720;28;83458;-93
2022/09/07 01:01:39;;;;;;;;;;;21.00;99.90;21.10;99484.00;;;;337695;28;90914;-93
2022/09/07 01:01:51;;;;;;;;;;;21.00;99.90;21.10;99487.00;;;;338035;28;82530;-93
2022/09/07 01:02:03;;;;;;;;;;;21.00;99.90;21.10;99481.00;;;;336288;28;91424;-93
2022/09/07 01:02:16;;;;;;;;;;;21.00;99.90;21.10;99483.00;;;;336759;28;83096;-93
2022/09/07 01:02:28;;;;;;;;;;;21.00;99.90;21.00;99487.00;;;;337584;28;92335;-93
2022/09/07 01:02:40;;;;;;;;;;;21.00;99.90;21.00;99482.00;;;;339281;28;83559;-93
2022/09/07 01:02:53;;;;;;;;;;;21.00;99.90;21.00;99484.00;;;;339841;28;91652;-94
2022/09/07 01:03:05;;;;;;;;;;;21.00;99.90;21.00;99485.00;;;;341905;28;82569;-93
2022/09/07 01:03:19;;;;;;;;;;;21.00;99.90;21.00;99485.00;;;;338593;28;91756;-93
2022/09/07 01:03:34;;;;;;;;;;;21.00;99.90;21.00;99485.00;;;;337892;28;83385;-93
2022/09/07 01:03:47;;;;;;;;;;;21.00;99.90;21.00;99486.00;;;;337463;28;90708;-93
2022/09/07 01:03:59;;;;;;;;;;;21.00;99.90;21.00;99487.00;;;;340668;28;83442;-93
2022/09/07 01:04:11;;;;;;;;;;;21.00;99.90;21.10;99487.00;;;;337586;28;89939;-93
2022/09/07 01:04:23;;;;;;;;;;;20.90;99.90;21.20;99487.00;;;;335539;29;83297;-93
2022/09/07 01:04:35;;;;;;;;;;;21.00;99.90;21.20;99483.00;;;;340117;28;92670;-93
2022/09/07 01:04:48;;;;;;;;;;;21.00;99.90;21.00;99488.00;;;;337940;28;83445;-93
2022/09/07 01:05:14;;;;;;;;;;;21.00;99.90;20.90;99493.00;;;;336274;28;91187;-93
2022/09/07 01:05:38;;;;;;;;;;;21.00;99.90;20.90;99487.00;;;;338098;28;82399;-93
2022/09/07 01:05:57;;;;;;;;;;;21.00;99.90;20.80;99498.00;;;;338937;28;90373;-92
2022/09/07 01:06:11;;;;;;;;;;;21.00;99.90;20.90;99492.00;;;;339344;28;83345;-93
2022/09/07 01:06:25;;;;;;;;;;;21.00;99.90;20.90;99496.00;;;;336360;28;90257;-93
2022/09/07 01:06:38;;;;;;;;;;;20.90;99.90;20.90;99495.00;;;;337670;28;83492;-92
2022/09/07 01:06:50;;;;;;;;;;;20.90;99.90;20.90;99497.00;;;;340218;28;91357;-92
2022/09/07 01:07:02;;;;;;;;;;;20.90;99.90;20.80;99492.00;;;;339251;28;83357;-93
2022/09/07 01:07:14;;;;;;;;;;;20.90;99.90;20.70;99502.00;;;;338592;28;91439;-93
2022/09/07 01:07:25;;;;;;;;;;;20.90;99.90;20.70;99497.00;;;;336768;28;83242;-93
2022/09/07 01:07:37;;;;;;;;;;;20.90;99.90;20.70;99495.00;;;;336340;28;90691;-93
2022/09/07 01:07:49;;;;;;;;;;;20.90;99.90;20.70;99497.00;;;;338070;28;82505;-93
2022/09/07 01:08:01;;;;;;;;;;;20.90;99.90;20.70;99495.00;;;;338835;28;90651;-93
2022/09/07 01:08:13;;;;;;;;;;;20.90;99.90;20.70;99490.00;;;;339327;28;83439;-93
2022/09/07 01:08:24;;;;;;;;;;;20.80;99.90;20.70;99490.00;;;;337600;28;91376;-93
2022/09/07 01:08:36;;;;;;;;;;;20.80;99.90;20.70;99491.00;;;;337980;28;83537;-93